sensor_id;sensor_type;location;lat;lon;timestamp;P1;durP1;ratioP1;P2;durP2;ratioP2
54875;SDS011;40764;48.472;8.166;2022-08-19T00:04:45;31.92;;;24.05;;
54875;SDS011;40764;48.472;8.166;2022-08-19T00:10:47;37.35;;;26.27;;
54875;SDS011;40764;48.472;8.166;2022-08-19T00:16:48;35.53;;;27.17;;
54875;SDS011;40764;48.472;8.166;2022-08-19T00:22:49;44.27;;;31.03;;
54875;SDS011;40764;48.472;8.166;2022-08-19T00:28:49;36.63;;;27.97;;
54875;SDS011;40764;48.472;8.166;2022-08-19T00:34:50;38.00;;;27.10;;
54875;SDS011;40764;48.472;8.166;2022-08-19T00:40:53;32.08;;;22.35;;
54875;SDS011;40764;48.472;8.166;2022-08-19T00:46:54;33.33;;;26.17;;
54875;SDS011;40764;48.472;8.166;2022-08-19T00:52:57;33.40;;;27.17;;
54875;SDS011;40764;48.472;8.166;2022-08-19T00:58:58;35.70;;;27.50;;
54875;SDS011;40764;48.472;8.166;2022-08-19T01:05:00;36.58;;;24.27;;
54875;SDS011;40764;48.472;8.166;2022-08-19T01:11:03;33.42;;;24.17;;
54875;SDS011;40764;48.472;8.166;2022-08-19T01:17:04;33.58;;;24.48;;
54875;SDS011;40764;48.472;8.166;2022-08-19T01:23:05;26.63;;;21.60;;
54875;SDS011;40764;48.472;8.166;2022-08-19T01:29:06;31.13;;;23.92;;
54875;SDS011;40764;48.472;8.166;2022-08-19T01:35:07;31.88;;;25.08;;
54875;SDS011;40764;48.472;8.166;2022-08-19T01:41:10;41.00;;;26.02;;
54875;SDS011;40764;48.472;8.166;2022-08-19T01:47:11;35.72;;;27.92;;
54875;SDS011;40764;48.472;8.166;2022-08-19T01:53:12;36.83;;;28.90;;
54875;SDS011;40764;48.472;8.166;2022-08-19T01:59:13;47.28;;;32.53;;
54875;SDS011;40764;48.472;8.166;2022-08-19T02:05:17;37.75;;;27.98;;
54875;SDS011;40764;48.472;8.166;2022-08-19T02:11:22;38.08;;;27.42;;
54875;SDS011;40764;48.472;8.166;2022-08-19T02:17:27;42.92;;;29.85;;
54875;SDS011;40764;48.472;8.166;2022-08-19T02:23:28;35.17;;;27.50;;
54875;SDS011;40764;48.472;8.166;2022-08-19T02:29:29;40.13;;;28.20;;
54875;SDS011;40764;48.472;8.166;2022-08-19T02:35:29;37.00;;;27.23;;
54875;SDS011;40764;48.472;8.166;2022-08-19T02:41:31;38.93;;;26.10;;
54875;SDS011;40764;48.472;8.166;2022-08-19T02:47:32;36.22;;;27.52;;
54875;SDS011;40764;48.472;8.166;2022-08-19T02:53:34;44.23;;;29.10;;
54875;SDS011;40764;48.472;8.166;2022-08-19T02:59:34;39.07;;;26.40;;
54875;SDS011;40764;48.472;8.166;2022-08-19T03:05:35;35.47;;;25.30;;
54875;SDS011;40764;48.472;8.166;2022-08-19T03:11:35;33.67;;;26.65;;
54875;SDS011;40764;48.472;8.166;2022-08-19T03:17:36;36.00;;;28.10;;
54875;SDS011;40764;48.472;8.166;2022-08-19T03:23:37;35.60;;;27.33;;
54875;SDS011;40764;48.472;8.166;2022-08-19T03:29:37;52.85;;;34.13;;
54875;SDS011;40764;48.472;8.166;2022-08-19T03:35:39;43.92;;;30.92;;
54875;SDS011;40764;48.472;8.166;2022-08-19T03:41:40;43.58;;;31.70;;
54875;SDS011;40764;48.472;8.166;2022-08-19T03:47:43;43.83;;;31.92;;
54875;SDS011;40764;48.472;8.166;2022-08-19T03:53:43;40.45;;;29.77;;
54875;SDS011;40764;48.472;8.166;2022-08-19T03:59:43;40.65;;;27.83;;
54875;SDS011;40764;48.472;8.166;2022-08-19T04:05:45;37.83;;;27.23;;
54875;SDS011;40764;48.472;8.166;2022-08-19T04:11:48;39.20;;;28.60;;
54875;SDS011;40764;48.472;8.166;2022-08-19T04:17:53;48.17;;;31.63;;
54875;SDS011;40764;48.472;8.166;2022-08-19T04:23:54;46.17;;;34.25;;
54875;SDS011;40764;48.472;8.166;2022-08-19T04:29:56;47.63;;;34.13;;
54875;SDS011;40764;48.472;8.166;2022-08-19T04:35:56;44.73;;;32.03;;
54875;SDS011;40764;48.472;8.166;2022-08-19T04:41:58;38.17;;;28.05;;
54875;SDS011;40764;48.472;8.166;2022-08-19T04:48:17;41.47;;;28.67;;
54875;SDS011;40764;48.472;8.166;2022-08-19T04:54:23;40.38;;;30.83;;
54875;SDS011;40764;48.472;8.166;2022-08-19T05:00:25;37.83;;;27.80;;
54875;SDS011;40764;48.472;8.166;2022-08-19T05:06:25;36.43;;;30.07;;
54875;SDS011;40764;48.472;8.166;2022-08-19T05:12:26;36.87;;;28.27;;
54875;SDS011;40764;48.472;8.166;2022-08-19T05:18:28;35.30;;;29.95;;
54875;SDS011;40764;48.472;8.166;2022-08-19T05:24:47;40.47;;;30.17;;
54875;SDS011;40764;48.472;8.166;2022-08-19T05:30:47;51.70;;;34.47;;
54875;SDS011;40764;48.472;8.166;2022-08-19T05:36:51;51.10;;;35.22;;
54875;SDS011;40764;48.472;8.166;2022-08-19T05:42:56;53.22;;;34.63;;
54875;SDS011;40764;48.472;8.166;2022-08-19T05:48:57;44.28;;;34.25;;
54875;SDS011;40764;48.472;8.166;2022-08-19T05:54:58;46.80;;;35.88;;
54875;SDS011;40764;48.472;8.166;2022-08-19T06:00:58;59.20;;;40.60;;
54875;SDS011;40764;48.472;8.166;2022-08-19T06:07:04;48.50;;;33.80;;
54875;SDS011;40764;48.472;8.166;2022-08-19T06:13:04;60.00;;;39.27;;
54875;SDS011;40764;48.472;8.166;2022-08-19T06:19:06;66.53;;;42.00;;
54875;SDS011;40764;48.472;8.166;2022-08-19T06:25:10;74.03;;;43.78;;
54875;SDS011;40764;48.472;8.166;2022-08-19T06:31:13;60.47;;;40.58;;
54875;SDS011;40764;48.472;8.166;2022-08-19T06:37:16;59.97;;;40.08;;
54875;SDS011;40764;48.472;8.166;2022-08-19T06:43:16;63.80;;;44.17;;
54875;SDS011;40764;48.472;8.166;2022-08-19T06:49:17;63.97;;;41.60;;
54875;SDS011;40764;48.472;8.166;2022-08-19T06:55:18;67.33;;;42.40;;
54875;SDS011;40764;48.472;8.166;2022-08-19T07:01:19;68.03;;;43.17;;
54875;SDS011;40764;48.472;8.166;2022-08-19T07:20:10;63.03;;;43.35;;
54875;SDS011;40764;48.472;8.166;2022-08-19T07:26:13;64.77;;;43.43;;
54875;SDS011;40764;48.472;8.166;2022-08-19T07:32:16;65.60;;;42.33;;
54875;SDS011;40764;48.472;8.166;2022-08-19T07:38:22;62.08;;;39.75;;
54875;SDS011;40764;48.472;8.166;2022-08-19T07:44:24;71.75;;;43.45;;
54875;SDS011;40764;48.472;8.166;2022-08-19T07:50:34;55.72;;;40.40;;
54875;SDS011;40764;48.472;8.166;2022-08-19T07:56:34;61.42;;;41.45;;
54875;SDS011;40764;48.472;8.166;2022-08-19T08:02:36;62.97;;;41.83;;
54875;SDS011;40764;48.472;8.166;2022-08-19T08:08:42;59.10;;;41.17;;
54875;SDS011;40764;48.472;8.166;2022-08-19T08:15:03;58.63;;;40.78;;
54875;SDS011;40764;48.472;8.166;2022-08-19T08:21:09;58.17;;;40.20;;
54875;SDS011;40764;48.472;8.166;2022-08-19T08:27:10;62.87;;;40.13;;
54875;SDS011;40764;48.472;8.166;2022-08-19T08:33:12;55.45;;;39.60;;
54875;SDS011;40764;48.472;8.166;2022-08-19T08:39:17;60.47;;;40.58;;
54875;SDS011;40764;48.472;8.166;2022-08-19T08:45:23;61.53;;;39.50;;
54875;SDS011;40764;48.472;8.166;2022-08-19T08:51:44;64.15;;;40.30;;
54875;SDS011;40764;48.472;8.166;2022-08-19T08:58:03;49.13;;;37.25;;
54875;SDS011;40764;48.472;8.166;2022-08-19T09:04:15;54.08;;;37.33;;
54875;SDS011;40764;48.472;8.166;2022-08-19T09:10:34;50.93;;;36.30;;
54875;SDS011;40764;48.472;8.166;2022-08-19T09:16:38;55.92;;;34.67;;
54875;SDS011;40764;48.472;8.166;2022-08-19T09:22:40;46.22;;;33.60;;
54875;SDS011;40764;48.472;8.166;2022-08-19T09:28:45;42.05;;;29.38;;
54875;SDS011;40764;48.472;8.166;2022-08-19T09:34:48;46.20;;;31.83;;
54875;SDS011;40764;48.472;8.166;2022-08-19T09:40:54;45.70;;;30.65;;
54875;SDS011;40764;48.472;8.166;2022-08-19T09:46:54;40.17;;;29.75;;
54875;SDS011;40764;48.472;8.166;2022-08-19T09:52:56;44.63;;;29.95;;
54875;SDS011;40764;48.472;8.166;2022-08-19T09:59:00;36.13;;;27.90;;
54875;SDS011;40764;48.472;8.166;2022-08-19T10:05:03;42.28;;;30.95;;
54875;SDS011;40764;48.472;8.166;2022-08-19T10:11:23;45.20;;;32.03;;
54875;SDS011;40764;48.472;8.166;2022-08-19T10:17:23;47.33;;;33.07;;
54875;SDS011;40764;48.472;8.166;2022-08-19T10:23:25;41.38;;;31.27;;
54875;SDS011;40764;48.472;8.166;2022-08-19T10:29:29;39.63;;;31.03;;
54875;SDS011;40764;48.472;8.166;2022-08-19T10:35:30;44.85;;;30.55;;
54875;SDS011;40764;48.472;8.166;2022-08-19T10:41:31;42.73;;;28.80;;
54875;SDS011;40764;48.472;8.166;2022-08-19T10:47:34;39.90;;;30.02;;
54875;SDS011;40764;48.472;8.166;2022-08-19T10:53:34;38.47;;;29.27;;
54875;SDS011;40764;48.472;8.166;2022-08-19T10:59:35;44.80;;;29.20;;
54875;SDS011;40764;48.472;8.166;2022-08-19T11:05:35;44.13;;;29.87;;
54875;SDS011;40764;48.472;8.166;2022-08-19T11:11:38;37.00;;;28.25;;
54875;SDS011;40764;48.472;8.166;2022-08-19T11:17:41;39.10;;;27.85;;
54875;SDS011;40764;48.472;8.166;2022-08-19T11:23:43;38.67;;;27.05;;
54875;SDS011;40764;48.472;8.166;2022-08-19T11:35:44;35.78;;;24.17;;
54875;SDS011;40764;48.472;8.166;2022-08-19T11:41:45;35.25;;;24.40;;
54875;SDS011;40764;48.472;8.166;2022-08-19T11:47:45;30.53;;;20.30;;
54875;SDS011;40764;48.472;8.166;2022-08-19T11:53:47;34.78;;;26.25;;
54875;SDS011;40764;48.472;8.166;2022-08-19T11:59:50;28.35;;;21.80;;
54875;SDS011;40764;48.472;8.166;2022-08-19T12:05:52;29.70;;;20.92;;
54875;SDS011;40764;48.472;8.166;2022-08-19T12:11:53;27.63;;;21.07;;
54875;SDS011;40764;48.472;8.166;2022-08-19T12:17:53;23.60;;;18.80;;
54875;SDS011;40764;48.472;8.166;2022-08-19T12:23:56;28.20;;;20.10;;
54875;SDS011;40764;48.472;8.166;2022-08-19T12:29:58;20.85;;;17.50;;
54875;SDS011;40764;48.472;8.166;2022-08-19T12:36:02;31.23;;;21.08;;
54875;SDS011;40764;48.472;8.166;2022-08-19T12:42:04;19.92;;;16.05;;
54875;SDS011;40764;48.472;8.166;2022-08-19T12:48:05;21.60;;;14.77;;
54875;SDS011;40764;48.472;8.166;2022-08-19T12:54:05;18.07;;;14.67;;
54875;SDS011;40764;48.472;8.166;2022-08-19T13:00:07;19.07;;;16.03;;
54875;SDS011;40764;48.472;8.166;2022-08-19T13:06:11;20.10;;;16.38;;
54875;SDS011;40764;48.472;8.166;2022-08-19T13:12:11;24.08;;;16.95;;
54875;SDS011;40764;48.472;8.166;2022-08-19T13:18:13;20.65;;;15.00;;
54875;SDS011;40764;48.472;8.166;2022-08-19T13:30:14;18.98;;;14.85;;
54875;SDS011;40764;48.472;8.166;2022-08-19T13:36:35;21.45;;;13.85;;
54875;SDS011;40764;48.472;8.166;2022-08-19T13:42:36;18.25;;;13.48;;
54875;SDS011;40764;48.472;8.166;2022-08-19T13:48:36;16.10;;;12.70;;
54875;SDS011;40764;48.472;8.166;2022-08-19T13:54:36;18.35;;;13.15;;
54875;SDS011;40764;48.472;8.166;2022-08-19T14:00:39;16.60;;;13.15;;
54875;SDS011;40764;48.472;8.166;2022-08-19T14:06:41;20.80;;;13.45;;
54875;SDS011;40764;48.472;8.166;2022-08-19T14:12:42;17.87;;;14.90;;
54875;SDS011;40764;48.472;8.166;2022-08-19T14:18:42;19.53;;;15.10;;
54875;SDS011;40764;48.472;8.166;2022-08-19T14:24:43;15.83;;;13.13;;
54875;SDS011;40764;48.472;8.166;2022-08-19T14:30:43;20.63;;;13.70;;
54875;SDS011;40764;48.472;8.166;2022-08-19T14:36:44;15.98;;;13.55;;
54875;SDS011;40764;48.472;8.166;2022-08-19T14:42:44;15.00;;;13.00;;
54875;SDS011;40764;48.472;8.166;2022-08-19T14:48:45;21.88;;;13.63;;
54875;SDS011;40764;48.472;8.166;2022-08-19T15:00:46;20.15;;;13.10;;
54875;SDS011;40764;48.472;8.166;2022-08-19T15:06:47;14.10;;;12.13;;
54875;SDS011;40764;48.472;8.166;2022-08-19T15:12:47;18.58;;;12.20;;
54875;SDS011;40764;48.472;8.166;2022-08-19T15:18:52;14.40;;;11.40;;
54875;SDS011;40764;48.472;8.166;2022-08-19T15:24:55;15.80;;;11.73;;
54875;SDS011;40764;48.472;8.166;2022-08-19T15:30:56;13.48;;;10.32;;
54875;SDS011;40764;48.472;8.166;2022-08-19T15:36:56;16.00;;;10.70;;
54875;SDS011;40764;48.472;8.166;2022-08-19T15:42:58;14.95;;;10.38;;
54875;SDS011;40764;48.472;8.166;2022-08-19T15:48:59;20.83;;;11.53;;
54875;SDS011;40764;48.472;8.166;2022-08-19T15:54:59;13.10;;;11.63;;
54875;SDS011;40764;48.472;8.166;2022-08-19T16:07:21;17.00;;;12.18;;
54875;SDS011;40764;48.472;8.166;2022-08-19T16:13:21;14.50;;;11.57;;
54875;SDS011;40764;48.472;8.166;2022-08-19T16:19:22;15.10;;;12.32;;
54875;SDS011;40764;48.472;8.166;2022-08-19T16:31:26;16.48;;;12.70;;
54875;SDS011;40764;48.472;8.166;2022-08-19T16:37:27;18.85;;;12.60;;
54875;SDS011;40764;48.472;8.166;2022-08-19T16:43:28;15.43;;;12.05;;
54875;SDS011;40764;48.472;8.166;2022-08-19T16:49:32;18.38;;;13.02;;
54875;SDS011;40764;48.472;8.166;2022-08-19T16:55:33;19.43;;;13.00;;
54875;SDS011;40764;48.472;8.166;2022-08-19T17:01:33;17.80;;;13.88;;
54875;SDS011;40764;48.472;8.166;2022-08-19T17:07:33;21.08;;;13.00;;
54875;SDS011;40764;48.472;8.166;2022-08-19T17:13:34;19.15;;;13.15;;
54875;SDS011;40764;48.472;8.166;2022-08-19T17:19:35;15.98;;;13.98;;
54875;SDS011;40764;48.472;8.166;2022-08-19T17:25:35;17.15;;;13.80;;
54875;SDS011;40764;48.472;8.166;2022-08-19T17:31:37;16.45;;;12.07;;
54875;SDS011;40764;48.472;8.166;2022-08-19T17:37:37;17.03;;;12.20;;
54875;SDS011;40764;48.472;8.166;2022-08-19T17:43:38;20.77;;;14.63;;
54875;SDS011;40764;48.472;8.166;2022-08-19T17:49:38;14.70;;;12.55;;
54875;SDS011;40764;48.472;8.166;2022-08-19T17:55:38;22.10;;;12.40;;
54875;SDS011;40764;48.472;8.166;2022-08-19T18:01:39;16.60;;;12.52;;
54875;SDS011;40764;48.472;8.166;2022-08-19T18:13:41;17.10;;;12.10;;
54875;SDS011;40764;48.472;8.166;2022-08-19T18:19:42;15.63;;;11.80;;
54875;SDS011;40764;48.472;8.166;2022-08-19T18:25:44;16.67;;;11.90;;
54875;SDS011;40764;48.472;8.166;2022-08-19T18:31:44;16.67;;;12.17;;
54875;SDS011;40764;48.472;8.166;2022-08-19T18:37:45;15.97;;;12.63;;
54875;SDS011;40764;48.472;8.166;2022-08-19T18:43:46;18.08;;;14.23;;
54875;SDS011;40764;48.472;8.166;2022-08-19T18:50:04;16.65;;;12.90;;
54875;SDS011;40764;48.472;8.166;2022-08-19T18:56:10;18.27;;;14.50;;
54875;SDS011;40764;48.472;8.166;2022-08-19T19:02:12;16.48;;;14.50;;
54875;SDS011;40764;48.472;8.166;2022-08-19T19:08:17;21.65;;;15.95;;
54875;SDS011;40764;48.472;8.166;2022-08-19T19:14:19;21.23;;;15.33;;
54875;SDS011;40764;48.472;8.166;2022-08-19T19:20:23;25.77;;;16.60;;
54875;SDS011;40764;48.472;8.166;2022-08-19T19:26:26;29.45;;;16.35;;
54875;SDS011;40764;48.472;8.166;2022-08-19T19:32:27;21.40;;;15.70;;
54875;SDS011;40764;48.472;8.166;2022-08-19T19:38:31;19.00;;;15.38;;
54875;SDS011;40764;48.472;8.166;2022-08-19T19:44:36;20.23;;;15.63;;
54875;SDS011;40764;48.472;8.166;2022-08-19T19:50:41;19.67;;;14.77;;
54875;SDS011;40764;48.472;8.166;2022-08-19T19:56:42;27.88;;;16.70;;
54875;SDS011;40764;48.472;8.166;2022-08-19T20:02:44;19.30;;;15.80;;
54875;SDS011;40764;48.472;8.166;2022-08-19T20:08:45;18.30;;;15.47;;
54875;SDS011;40764;48.472;8.166;2022-08-19T20:15:05;18.23;;;15.45;;
54875;SDS011;40764;48.472;8.166;2022-08-19T20:21:06;24.25;;;16.27;;
54875;SDS011;40764;48.472;8.166;2022-08-19T20:27:06;20.13;;;15.43;;
54875;SDS011;40764;48.472;8.166;2022-08-19T20:33:07;21.90;;;15.43;;
54875;SDS011;40764;48.472;8.166;2022-08-19T20:39:07;20.83;;;15.90;;
54875;SDS011;40764;48.472;8.166;2022-08-19T20:45:15;24.63;;;16.20;;
54875;SDS011;40764;48.472;8.166;2022-08-19T20:51:17;27.60;;;16.10;;
54875;SDS011;40764;48.472;8.166;2022-08-19T20:57:17;22.95;;;16.80;;
54875;SDS011;40764;48.472;8.166;2022-08-19T21:03:19;27.80;;;16.50;;
54875;SDS011;40764;48.472;8.166;2022-08-19T21:09:21;21.35;;;16.33;;
54875;SDS011;40764;48.472;8.166;2022-08-19T21:15:21;24.33;;;17.67;;
54875;SDS011;40764;48.472;8.166;2022-08-19T21:21:23;24.95;;;17.83;;
54875;SDS011;40764;48.472;8.166;2022-08-19T21:27:23;23.53;;;17.87;;
54875;SDS011;40764;48.472;8.166;2022-08-19T21:33:25;23.45;;;16.23;;
54875;SDS011;40764;48.472;8.166;2022-08-19T21:39:27;22.80;;;16.13;;
54875;SDS011;40764;48.472;8.166;2022-08-19T21:45:28;20.57;;;15.47;;
54875;SDS011;40764;48.472;8.166;2022-08-19T21:51:29;18.57;;;14.77;;
54875;SDS011;40764;48.472;8.166;2022-08-19T22:03:31;19.27;;;14.00;;
54875;SDS011;40764;48.472;8.166;2022-08-19T22:09:32;19.77;;;13.40;;
54875;SDS011;40764;48.472;8.166;2022-08-19T22:15:32;17.13;;;13.10;;
54875;SDS011;40764;48.472;8.166;2022-08-19T22:21:33;19.37;;;13.10;;
54875;SDS011;40764;48.472;8.166;2022-08-19T22:27:33;14.80;;;11.93;;
54875;SDS011;40764;48.472;8.166;2022-08-19T22:33:35;14.70;;;10.30;;
54875;SDS011;40764;48.472;8.166;2022-08-19T22:39:36;16.17;;;10.60;;
54875;SDS011;40764;48.472;8.166;2022-08-19T22:45:36;15.47;;;10.13;;
54875;SDS011;40764;48.472;8.166;2022-08-19T22:51:37;12.13;;;10.33;;
54875;SDS011;40764;48.472;8.166;2022-08-19T22:57:56;13.20;;;9.18;;
54875;SDS011;40764;48.472;8.166;2022-08-19T23:03:58;14.55;;;9.15;;
54875;SDS011;40764;48.472;8.166;2022-08-19T23:09:58;15.93;;;11.87;;
54875;SDS011;40764;48.472;8.166;2022-08-19T23:15:58;17.00;;;10.38;;
54875;SDS011;40764;48.472;8.166;2022-08-19T23:21:59;11.97;;;8.70;;
54875;SDS011;40764;48.472;8.166;2022-08-19T23:28:00;16.47;;;10.00;;
54875;SDS011;40764;48.472;8.166;2022-08-19T23:34:19;18.63;;;9.15;;
54875;SDS011;40764;48.472;8.166;2022-08-19T23:40:19;15.60;;;10.83;;
54875;SDS011;40764;48.472;8.166;2022-08-19T23:46:21;13.50;;;9.10;;
54875;SDS011;40764;48.472;8.166;2022-08-19T23:52:21;13.37;;;9.97;;
54875;SDS011;40764;48.472;8.166;2022-08-19T23:58:21;12.10;;;8.32;;
